Latest Weather Observations for Karratha

IDW60801

Issued at 7:04 pm WST Sunday 26 March 2017 (issued every 30 minutes, with the page automatically refreshed every 10 minutes)

About weather observations | Map of weather stations | Latest weather observations for WA | Other Formats
Station Details ID: 004083 Name: KARRATHA AERO Lat: -20.71 Lon: 116.77 Height: 5.3 m
Data from the previous 72 hours. | See also: Recent months at Karratha
Date/Time
WST
Temp
°C
App
Temp
°C
Dew
Point
°C
Rel
Hum
%
Delta-T
°C
Wind Press
QNH
hPa
Press
MSL
hPa
Rain since
9am
mm
Dir  Spd
km/h
Gust
km/h
Spd
kts
Gust
kts
26/07:00pm 31.0 33.5 23.1 63 5.4 NW 15 19 8 10 1007.6 1007.6 0.0
26/06:30pm 31.2 33.5 22.8 61 5.8 NNW 15 20 8 11 1007.0 1006.9 0.0
26/06:00pm 31.3 33.1 22.6 60 6.0 NNW 17 20 9 11 1006.9 1006.8 0.0
26/05:30pm 31.7 33.6 23.5 62 5.7 NNW 19 24 10 13 1006.9 1006.8 0.0
26/05:00pm 32.2 34.1 23.4 59 6.1 NNW 19 24 10 13 1006.8 1006.7 0.0
26/04:30pm 33.7 35.8 23.7 56 7.0 NNW 19 22 10 12 1006.5 1006.4 0.0
26/04:00pm 33.6 35.3 23.0 54 7.3 NNW 19 26 10 14 1006.3 1006.2 0.0
26/03:30pm 34.2 36.2 22.9 51 7.8 N 17 22 9 12 1006.0 1005.9 0.0
26/03:00pm 33.6 35.6 23.9 57 6.8 N 20 26 11 14 1006.0 1005.9 0.0
26/02:30pm 33.6 35.1 22.7 53 7.5 NNW 19 24 10 13 1006.1 1006.0 0.0
26/02:00pm 34.8 36.2 21.8 46 8.9 N 17 20 9 11 1006.2 1006.1 0.0
26/01:30pm 35.2 34.5 18.3 36 11.0 NNE 19 24 10 13 1006.3 1006.2 0.0
26/01:00pm 35.0 34.8 19.4 40 10.3 NNE 19 22 10 12 1006.4 1006.3 0.0
26/12:30pm 35.7 35.4 18.3 35 11.4 NE 17 20 9 11 1006.7 1006.6 0.0
26/12:00pm 35.3 35.6 18.0 36 11.3 NE 13 20 7 11 1007.2 1007.2 0.0
26/11:30am 35.0 36.0 19.4 40 10.3 N 13 19 7 10 1007.4 1007.4 0.0
26/11:00am 34.0 36.0 20.7 45 8.9 NNW 11 15 6 8 1007.7 1007.7 0.0
26/10:30am 33.7 36.3 20.5 46 8.8 NNW 7 13 4 7 1007.9 1007.9 0.0
26/10:00am 33.8 35.4 18.3 39 10.1 SSE 7 15 4 8 1008.0 1008.0 0.0
26/09:30am 32.0 33.8 19.6 47 8.2 SSE 9 15 5 8 1007.9 1007.9 0.0
26/09:00am 30.6 33.4 20.8 56 6.5 SSW 7 11 4 6 1008.1 1008.1 0.0
26/08:30am 29.7 32.8 21.4 61 5.6 SSW 7 13 4 7 1008.0 1008.0 0.0
26/08:00am 28.5 31.0 21.0 64 5.0 WSW 9 13 5 7 1007.9 1007.9 0.0
26/07:30am 27.8 30.6 21.6 69 4.1 SW 9 11 5 6 1008.1 1008.1 0.0
26/07:00am 26.7 30.2 22.1 76 3.1 SW 7 9 4 5 1007.9 1007.9 0.0
26/06:30am 25.9 29.3 22.0 79 2.6 SW 7 9 4 5 1007.7 1007.7 0.0
26/06:00am 26.2 29.3 22.1 78 2.8 WSW 9 9 5 5 1007.6 1007.6 0.0
26/05:30am 26.3 29.8 22.2 78 2.8 WSW 7 9 4 5 1007.3 1007.3 0.0
26/05:00am 26.4 29.8 22.0 77 3.0 SW 7 11 4 6 1007.3 1007.3 0.0
26/04:30am 26.5 29.8 21.9 76 3.1 WSW 7 9 4 5 1007.3 1007.3 0.0
26/04:00am 26.8 29.4 22.0 75 3.2 SW 11 15 6 8 1007.2 1007.2 0.0
26/03:30am 26.9 28.6 21.6 72 3.5 WSW 15 19 8 10 1007.2 1007.2 0.0
26/03:00am 27.0 28.7 21.7 73 3.5 WSW 15 19 8 10 1007.1 1007.0 0.0
26/02:30am 27.1 28.4 21.6 72 3.7 WSW 17 20 9 11 1007.2 1007.2 0.0
26/02:00am 27.5 28.6 21.3 69 4.1 WSW 17 22 9 12 1007.5 1007.5 0.0
26/01:30am 27.6 28.8 21.4 69 4.1 WSW 17 20 9 11 1007.7 1007.7 0.0
26/01:00am 27.6 28.5 20.9 67 4.4 WSW 17 20 9 11 1007.9 1007.9 0.0
26/12:30am 27.5 28.7 21.5 70 4.0 SW 17 20 9 11 1008.2 1008.2 0.0
26/12:00am 28.0 29.2 21.5 67 4.3 SW 17 22 9 12 1008.1 1008.1 0.0
 
Date/Time
WST
Temp
°C
App
Temp
°C
Dew
Point
°C
Rel
Hum
%
Delta-T
°C
Wind Press
QNH
hPa
Press
MSL
hPa
Rain since
9am
mm
Dir  Spd
km/h
Gust
km/h
Spd
kts
Gust
kts
25/11:30pm 28.0 29.4 21.8 69 4.2 WSW 17 24 9 13 1008.3 1008.3 0.0
25/11:00pm 27.9 29.3 21.9 70 4.0 WSW 17 22 9 12 1008.4 1008.4 0.0
25/10:30pm 27.9 28.9 21.7 69 4.2 SW 19 22 10 12 1008.5 1008.5 0.0
25/10:00pm 28.4 29.4 21.7 67 4.5 SW 19 22 10 12 1008.6 1008.6 0.0
25/09:30pm 28.7 28.8 21.2 64 5.0 WSW 22 26 12 14 1008.4 1008.4 0.0
25/09:00pm 29.1 28.9 21.3 62 5.2 WSW 24 30 13 16 1008.1 1008.1 0.0
25/08:30pm 29.4 30.5 22.4 66 4.7 WSW 20 26 11 14 1007.8 1007.8 0.0
25/08:00pm 29.8 31.4 23.3 68 4.5 WSW 20 24 11 13 1007.4 1007.4 0.0
25/07:30pm 30.0 32.1 23.7 69 4.4 W 19 24 10 13 1006.9 1006.8 0.0
25/07:00pm 30.1 31.4 23.3 67 4.7 W 22 26 12 14 1006.4 1006.3 0.0
25/06:30pm 30.1 31.4 23.3 67 4.7 W 22 28 12 15 1005.9 1005.8 0.0
25/06:00pm 30.6 32.1 23.0 64 5.2 W 20 28 11 15 1005.7 1005.6 0.0
25/05:30pm 31.3 32.1 23.1 61 5.6 W 24 28 13 15 1005.4 1005.3 0.0
25/05:00pm 32.6 33.5 21.5 52 7.5 WNW 19 24 10 13 1005.3 1005.2 0.0
25/04:30pm 32.4 33.3 21.9 54 7.1 WNW 20 24 11 13 1005.2 1005.1 0.0
25/04:00pm 32.7 33.9 22.5 55 7.0 NW 20 26 11 14 1005.1 1005.0 0.0
25/03:30pm 32.3 33.6 22.7 57 6.6 WNW 20 26 11 14 1005.1 1005.0 0.0
25/03:00pm 32.3 33.1 22.4 56 6.8 WNW 22 28 12 15 1005.2 1005.1 0.0
25/02:30pm 32.5 33.6 22.3 55 7.0 WNW 20 26 11 14 1005.4 1005.3 0.0
25/02:00pm 32.7 33.1 20.9 49 7.9 WNW 20 26 11 14 1005.6 1005.5 0.0
25/01:30pm 33.2 34.1 22.0 51 7.6 NW 20 26 11 14 1005.9 1005.8 0.0
25/01:00pm 33.3 33.8 20.8 48 8.4 NW 19 26 10 14 1006.2 1006.1 0.0
25/12:30pm 33.6 34.7 20.4 46 8.8 NW 15 22 8 12 1006.6 1006.5 0.0
25/12:00pm 33.0 35.2 21.2 50 8.0 NNW 11 19 6 10 1007.1 1007.0 0.0
25/11:30am 32.6 33.0 17.2 39 9.8 N 11 15 6 8 1007.5 1007.5 0.0
25/11:00am 32.0 33.6 19.9 48 8.0 NNW 11 15 6 8 1007.8 1007.8 0.0
25/10:30am 31.1 33.9 21.6 57 6.4 NNW 9 15 5 8 1007.9 1007.9 0.0
25/10:00am 30.1 33.0 21.7 60 5.7 NW 9 15 5 8 1008.1 1008.1 0.0
25/09:30am 29.8 33.2 22.0 63 5.3 WNW 7 11 4 6 1008.1 1008.1 0.0
25/09:00am 28.8 30.8 21.6 65 4.8 W 13 15 7 8 1008.1 1008.1 0.0
25/08:30am 27.9 30.4 21.0 66 4.6 WSW 9 13 5 7 1007.9 1007.9 0.0
25/08:00am 27.3 29.1 21.1 69 4.1 WSW 13 15 7 8 1007.6 1007.6 0.0
25/07:30am 26.3 27.7 20.4 70 3.9 WSW 13 17 7 9 1007.2 1007.2 0.0
25/07:00am 25.1 27.7 20.4 75 3.1 SW 7 9 4 5 1007.2 1007.2 0.0
25/06:30am 24.8 26.2 20.3 76 2.9 SW 13 15 7 8 1006.8 1006.7 0.0
25/06:00am 25.1 27.5 20.8 77 2.8 SW 9 13 5 7 1006.5 1006.4 0.0
25/05:30am 25.7 27.3 20.7 74 3.3 WSW 13 15 7 8 1006.3 1006.2 0.0
25/05:00am 26.4 27.2 20.7 71 3.8 WSW 17 20 9 11 1005.9 1005.8 0.0
25/04:30am 26.9 27.1 20.5 68 4.2 WSW 20 24 11 13 1005.8 1005.7 0.0
25/04:00am 27.5 29.6 23.1 77 3.0 WSW 17 20 9 11 1005.8 1005.7 0.0
25/03:30am 28.3 30.9 23.9 77 3.0 W 17 20 9 11 1005.8 1005.7 0.0
25/03:00am 28.4 30.4 24.0 77 3.0 W 20 24 11 13 1005.9 1005.8 0.0
25/02:30am 28.3 30.6 24.5 80 2.6 W 20 26 11 14 1006.1 1006.0 0.0
25/02:00am 28.0 30.7 25.0 84 2.1 W 20 24 11 13 1006.2 1006.1 0.0
25/01:30am 27.9 30.8 25.1 85 2.0 WSW 19 28 10 15 1006.3 1006.2 0.0
25/01:00am 28.0 30.7 25.0 84 2.1 WSW 20 26 11 14 1006.4 1006.3 0.0
25/12:30am 28.3 31.0 25.1 83 2.2 WSW 20 26 11 14 1006.7 1006.6 0.0
25/12:00am 28.5 31.2 25.1 82 2.4 WSW 20 26 11 14 1006.7 1006.6 0.0
 
Date/Time
WST
Temp
°C
App
Temp
°C
Dew
Point
°C
Rel
Hum
%
Delta-T
°C
Wind Press
QNH
hPa
Press
MSL
hPa
Rain since
9am
mm
Dir  Spd
km/h
Gust
km/h
Spd
kts
Gust
kts
24/11:30pm 29.1 30.9 24.9 78 2.9 W 24 30 13 16 1006.9 1006.8 0.0
24/11:00pm 29.3 31.4 25.3 79 2.8 W 24 28 13 15 1007.0 1006.9 0.0
24/10:30pm 29.6 31.7 25.4 78 3.0 W 24 32 13 17 1007.0 1006.9 0.0
24/10:00pm 29.5 31.2 25.3 78 3.0 W 26 32 14 17 1006.8 1006.7 0.0
24/09:30pm 29.8 31.5 24.7 74 3.6 W 24 32 13 17 1006.8 1006.7 0.0
24/09:00pm 29.9 31.7 24.8 74 3.6 W 24 30 13 16 1006.7 1006.6 0.0
24/08:30pm 30.1 31.4 24.0 70 4.2 W 24 30 13 16 1006.2 1006.1 0.0
24/08:00pm 30.2 31.4 23.9 69 4.4 WNW 24 32 13 17 1005.9 1005.8 0.0
24/07:30pm 30.1 31.2 24.3 71 4.0 WNW 26 33 14 18 1005.7 1005.6 0.0
24/07:00pm 30.2 30.7 23.9 69 4.4 WNW 28 35 15 19 1005.1 1005.0 0.0
24/06:30pm 30.0 30.4 23.7 69 4.4 WNW 28 35 15 19 1004.8 1004.7 0.0
24/06:00pm 30.4 30.8 23.8 68 4.6 WNW 28 39 15 21 1004.2 1004.1 0.0
24/05:30pm 30.9 30.7 24.1 67 4.7 WNW 32 41 17 22 1003.9 1003.8 0.0
24/05:00pm 31.0 30.3 23.6 64 5.1 NW 33 41 18 22 1003.7 1003.6 0.0
24/04:30pm 31.7 31.4 23.8 63 5.5 NW 32 41 17 22 1003.5 1003.4 0.0
24/04:00pm 31.8 32.0 24.1 63 5.4 NW 30 39 16 21 1003.4 1003.3 0.0
24/03:30pm 32.7 33.3 24.2 61 5.9 WNW 28 35 15 19 1003.4 1003.3 0.0
24/03:00pm 32.6 32.0 22.7 56 6.8 WNW 30 39 16 21 1003.3 1003.2 0.0
24/02:30pm 32.9 33.3 23.8 58 6.3 NW 28 37 15 20 1003.5 1003.4 0.0
24/02:00pm 32.8 33.2 23.7 58 6.3 NW 28 35 15 19 1003.7 1003.6 0.0
24/01:30pm 33.2 33.6 23.2 55 6.9 NW 26 32 14 17 1004.0 1003.9 0.0
24/01:00pm 33.1 34.2 23.1 55 6.9 NW 22 28 12 15 1004.3 1004.2 0.0
24/12:30pm 32.9 34.1 23.8 58 6.3 WNW 24 32 13 17 1004.5 1004.4 0.0
24/12:00pm 32.7 32.4 23.3 57 6.5 W 30 35 16 19 1004.8 1004.7 0.0
24/11:30am 32.5 33.6 24.3 62 5.7 WNW 26 32 14 17 1005.1 1005.0 0.0
24/11:00am 32.2 33.3 24.3 63 5.5 WNW 26 32 14 17 1005.6 1005.5 0.0
24/10:30am 31.8 33.2 23.6 62 5.7 W 22 30 12 16 1005.7 1005.6 0.0
24/10:00am 31.3 32.4 23.1 61 5.7 WSW 22 28 12 15 1005.9 1005.8 0.0
24/09:30am 30.1 31.1 23.5 67 4.6 SW 24 33 13 18 1005.9 1005.8 0.0
24/09:00am 29.2 30.3 23.6 72 3.9 SW 24 32 13 17 1006.0 1005.9 1.2
24/08:30am 28.4 29.4 23.5 75 3.4 SW 24 30 13 16 1005.9 1005.8 1.2
24/08:00am 27.6 28.8 23.8 80 2.6 SSW 24 33 13 18 1005.7 1005.6 1.2
24/07:30am 27.0 28.7 24.1 84 2.0 SSW 22 26 12 14 1005.4 1005.3 1.2
24/07:00am 26.2 28.0 24.2 89 1.4 SW 22 30 12 16 1005.1 1005.0 1.2
24/06:30am 25.9 27.6 24.1 90 1.2 WSW 22 28 12 15 1004.6 1004.5 1.2
24/06:00am 25.9 27.2 24.1 90 1.2 SW 24 32 13 17 1004.2 1004.1 1.2
24/05:30am 26.1 27.0 24.0 88 1.4 WSW 26 33 14 18 1003.9 1003.8 1.2
24/05:00am 26.3 28.0 24.0 87 1.6 WSW 22 28 12 15 1003.8 1003.7 1.2
24/04:30am 26.5 27.7 23.8 85 1.9 WSW 24 32 13 17 1003.5 1003.4 1.2
24/04:00am 26.5 27.8 24.0 86 1.7 WSW 24 28 13 15 1003.5 1003.4 1.2
24/03:30am 26.6 27.2 23.5 83 2.1 WSW 26 33 14 18 1003.2 1003.1 1.2
24/03:00am 26.5 27.7 23.8 85 1.9 WSW 24 30 13 16 1003.4 1003.3 1.2
24/02:30am 26.7 28.5 23.6 83 2.1 WSW 20 26 11 14 1003.8 1003.7 1.2
24/02:00am 26.1 28.8 24.1 89 1.4 SW 17 22 9 12 1003.7 1003.6 1.2
24/01:30am 26.9 28.6 24.0 84 2.0 WSW 22 30 12 16 1003.6 1003.5 1.2
24/01:00am 27.2 28.9 24.1 83 2.1 WSW 22 28 12 15 1003.7 1003.6 1.2
24/12:30am 27.6 30.4 25.2 87 1.7 W 20 24 11 13 1003.7 1003.6 1.2
24/12:00am 27.1 29.8 24.7 87 1.7 W 19 22 10 12 1003.7 1003.6 1.2
 
Date/Time
WST
Temp
°C
App
Temp
°C
Dew
Point
°C
Rel
Hum
%
Delta-T
°C
Wind Press
QNH
hPa
Press
MSL
hPa
Rain since
9am
mm
Dir  Spd
km/h
Gust
km/h
Spd
kts
Gust
kts
23/11:30pm 27.2 29.6 24.3 84 2.0 W 19 24 10 13 1004.0 1003.9 1.2
23/11:00pm 26.9 28.8 24.4 86 1.7 WSW 22 26 12 14 1004.1 1004.0 1.2
23/10:30pm 27.0 28.5 24.3 85 1.9 WSW 24 32 13 17 1004.3 1004.2 1.2
23/10:00pm 27.3 29.0 24.7 86 1.8 W 24 32 13 17 1004.4 1004.3 1.2
23/09:30pm 27.1 28.2 24.9 88 1.5 WSW 28 33 15 18 1004.3 1004.2 1.2
23/09:00pm 26.9 28.1 24.5 87 1.7 WSW 26 33 14 18 1004.0 1003.9 1.2
23/08:30pm 26.6 28.3 24.6 89 1.4 WSW 24 30 13 16 1003.8 1003.7 1.2
23/08:00pm 26.4 29.6 25.0 92 1.0 SW 17 20 9 11 1003.5 1003.4 1.2
23/07:30pm 26.3 29.1 24.9 92 1.0 SW 19 24 10 13 1003.2 1003.1 1.2

Other Formats:

Comma delimited format used in spreadsheet applications
http://www.bom.gov.au/fwo/IDW60801/IDW60801.95307.axf

JavaScript Object Notation format (JSON) in row-major order
http://www.bom.gov.au/fwo/IDW60801/IDW60801.95307.json